Time;durP1;ratioP1;P1;durP2;ratioP2;P2;SDS_P1;SDS_P2;PMS_P1;PMS_P2;Temp;Humidity;BMP_temperature;BMP_pressure;BME280_temperature;BME280_humidity;BME280_pressure;Samples;Min_cycle;Max_cycle;Signal;HPM_P1;HPM_P2
2023/10/08 00:00:43;;;;;;;0.70;0.70;;;;;;;;;;6307939;28;20318;-69
2023/10/08 00:03:48;;;;;;;0.80;0.80;;;;;;;;;;6307507;28;20341;-69
2023/10/08 00:06:53;;;;;;;1.48;0.80;;;;;;;;;;6306962;28;20443;-70
2023/10/08 00:09:57;;;;;;;0.82;0.70;;;;;;;;;;6303713;28;20322;-69
2023/10/08 00:13:01;;;;;;;0.70;0.70;;;;;;;;;;6305477;28;20289;-71
2023/10/08 00:16:09;;;;;;;0.65;0.65;;;;;;;;;;6307621;28;20250;-70
2023/10/08 00:19:15;;;;;;;0.60;0.60;;;;;;;;;;6307152;28;20286;-70
2023/10/08 00:22:19;;;;;;;0.70;0.70;;;;;;;;;;6307488;28;20310;-70
2023/10/08 00:25:24;;;;;;;0.80;0.80;;;;;;;;;;6307113;28;20297;-69
2023/10/08 00:28:28;;;;;;;0.70;0.70;;;;;;;;;;6307193;28;20586;-71
2023/10/08 00:31:37;;;;;;;0.70;0.70;;;;;;;;;;6289034;28;20831;-71
2023/10/08 00:34:42;;;;;;;1.10;0.70;;;;;;;;;;6311873;28;20338;-69
2023/10/08 00:37:48;;;;;;;0.85;0.68;;;;;;;;;;6313398;28;20322;-71
2023/10/08 00:40:55;;;;;;;1.45;0.68;;;;;;;;;;6317032;28;20310;-69
2023/10/08 00:44:00;;;;;;;1.30;0.70;;;;;;;;;;6306624;28;20474;-69
2023/10/08 00:47:07;;;;;;;0.70;0.70;;;;;;;;;;6289275;28;20294;-70
2023/10/08 00:50:20;;;;;;;0.70;0.70;;;;;;;;;;6321389;28;20237;-68
2023/10/08 00:53:24;;;;;;;1.75;0.80;;;;;;;;;;6306453;28;20294;-69
2023/10/08 00:56:46;;;;;;;1.65;0.70;;;;;;;;;;6322059;28;20302;-69
2023/10/08 00:59:53;;;;;;;1.65;0.85;;;;;;;;;;6306431;28;20299;-70
2023/10/08 01:03:01;;;;;;;0.80;0.80;;;;;;;;;;6306516;28;20543;-68
2023/10/08 01:06:10;;;;;;;0.80;0.80;;;;;;;;;;6299828;28;20347;-70
2023/10/08 01:09:18;;;;;;;0.70;0.70;;;;;;;;;;6263231;28;20572;-69
2023/10/08 01:12:24;;;;;;;1.40;0.80;;;;;;;;;;6302524;28;20302;-69
2023/10/08 01:15:29;;;;;;;0.80;0.80;;;;;;;;;;6304959;28;20282;-70
2023/10/08 01:18:35;;;;;;;0.70;0.70;;;;;;;;;;6306356;28;20298;-70
2023/10/08 01:21:40;;;;;;;0.70;0.70;;;;;;;;;;6288242;28;20302;-69
2023/10/08 01:24:48;;;;;;;1.00;1.00;;;;;;;;;;6306043;28;20298;-69
2023/10/08 01:28:00;;;;;;;1.17;0.90;;;;;;;;;;6286766;28;20310;-69
2023/10/08 01:31:06;;;;;;;0.90;0.70;;;;;;;;;;6306629;28;20254;-69
2023/10/08 01:34:15;;;;;;;1.85;0.80;;;;;;;;;;6306051;28;20318;-69
2023/10/08 01:37:21;;;;;;;1.20;1.10;;;;;;;;;;6306913;28;20298;-69
2023/10/08 01:40:29;;;;;;;1.60;1.20;;;;;;;;;;6306075;28;20302;-69
2023/10/08 01:43:33;;;;;;;0.70;0.70;;;;;;;;;;6287438;28;20290;-69
2023/10/08 01:46:40;;;;;;;0.90;0.90;;;;;;;;;;6288041;28;20302;-69
2023/10/08 01:49:46;;;;;;;0.82;0.82;;;;;;;;;;6287630;28;20381;-69
2023/10/08 01:52:51;;;;;;;0.70;0.70;;;;;;;;;;6305477;28;20294;-71
2023/10/08 01:55:58;;;;;;;8.05;1.10;;;;;;;;;;6306122;28;20302;-69
2023/10/08 01:59:04;;;;;;;0.77;0.77;;;;;;;;;;6305620;28;20507;-69
2023/10/08 02:02:08;;;;;;;0.73;0.73;;;;;;;;;;6287713;28;20401;-68
2023/10/08 02:05:14;;;;;;;0.77;0.77;;;;;;;;;;6305413;28;20297;-69
2023/10/08 02:08:19;;;;;;;1.80;0.75;;;;;;;;;;6286463;28;20290;-70
2023/10/08 02:11:27;;;;;;;1.55;1.27;;;;;;;;;;6287634;28;20659;-69
2023/10/08 02:14:32;;;;;;;0.80;0.80;;;;;;;;;;6285386;28;20561;-70
2023/10/08 02:17:36;;;;;;;0.70;0.70;;;;;;;;;;6287062;28;20310;-70
2023/10/08 02:20:41;;;;;;;1.23;1.10;;;;;;;;;;6320957;28;20298;-69
2023/10/08 02:23:46;;;;;;;1.55;0.93;;;;;;;;;;6286898;28;20318;-68
2023/10/08 02:26:52;;;;;;;0.77;0.77;;;;;;;;;;6310045;28;20382;-69
2023/10/08 02:29:56;;;;;;;0.70;0.70;;;;;;;;;;6291651;28;20552;-71
2023/10/08 02:33:00;;;;;;;0.70;0.70;;;;;;;;;;6309764;28;20282;-69
2023/10/08 02:36:04;;;;;;;0.80;0.80;;;;;;;;;;6310148;28;20298;-70
2023/10/08 02:39:16;;;;;;;0.90;0.90;;;;;;;;;;6308798;28;20313;-69
2023/10/08 02:42:24;;;;;;;0.85;0.85;;;;;;;;;;6286909;28;20283;-69
2023/10/08 02:45:29;;;;;;;0.93;0.93;;;;;;;;;;6309555;28;20314;-69
2023/10/08 02:48:32;;;;;;;0.77;0.77;;;;;;;;;;6307844;28;20290;-69
2023/10/08 02:51:39;;;;;;;2.45;0.80;;;;;;;;;;6309723;28;20606;-68
2023/10/08 02:54:43;;;;;;;1.35;0.80;;;;;;;;;;6309258;28;20309;-69
2023/10/08 02:57:50;;;;;;;0.80;0.80;;;;;;;;;;6325937;28;20305;-69
2023/10/08 03:00:54;;;;;;;0.90;0.90;;;;;;;;;;6326617;28;20282;-69
2023/10/08 03:04:04;;;;;;;3.92;0.70;;;;;;;;;;6304729;28;20294;-70
2023/10/08 03:07:11;;;;;;;0.70;0.70;;;;;;;;;;6308987;28;20298;-68
2023/10/08 03:10:18;;;;;;;1.02;0.70;;;;;;;;;;6309291;28;20241;-69
2023/10/08 03:13:26;;;;;;;0.80;0.80;;;;;;;;;;6306515;28;20349;-68
2023/10/08 03:16:34;;;;;;;0.70;0.70;;;;;;;;;;6309129;28;20299;-69
2023/10/08 03:19:38;;;;;;;0.70;0.70;;;;;;;;;;6308390;28;20322;-69
2023/10/08 03:22:45;;;;;;;0.77;0.77;;;;;;;;;;6308976;28;20290;-70
2023/10/08 03:25:56;;;;;;;0.70;0.70;;;;;;;;;;6290757;28;20314;-70
2023/10/08 03:29:07;;;;;;;0.70;0.70;;;;;;;;;;6301054;28;20294;-69
2023/10/08 03:32:15;;;;;;;0.70;0.70;;;;;;;;;;6308645;28;20451;-72
2023/10/08 03:35:27;;;;;;;0.88;0.88;;;;;;;;;;6307639;28;20298;-69
2023/10/08 03:38:44;;;;;;;0.88;0.88;;;;;;;;;;6297883;28;20425;-69
2023/10/08 03:42:05;;;;;;;1.25;0.75;;;;;;;;;;6307371;28;20302;-70
2023/10/08 03:45:12;;;;;;;0.65;0.65;;;;;;;;;;6307966;28;20286;-70
2023/10/08 03:48:16;;;;;;;0.82;0.82;;;;;;;;;;6307565;28;20495;-70
2023/10/08 03:51:21;;;;;;;0.80;0.80;;;;;;;;;;6308159;28;20321;-70
2023/10/08 03:54:34;;;;;;;0.88;0.88;;;;;;;;;;6307107;28;20302;-70
2023/10/08 03:57:48;;;;;;;1.33;0.80;;;;;;;;;;6306896;28;20294;-70
2023/10/08 04:01:06;;;;;;;0.80;0.70;;;;;;;;;;6307194;28;20270;-69
2023/10/08 04:04:14;;;;;;;0.77;0.75;;;;;;;;;;6307713;28;20290;-72
2023/10/08 04:07:39;;;;;;;0.85;0.85;;;;;;;;;;6307690;28;20358;-70
2023/10/08 04:11:07;;;;;;;0.85;0.80;;;;;;;;;;6303382;28;20310;-69
2023/10/08 04:14:11;;;;;;;0.88;0.88;;;;;;;;;;6305047;28;20294;-69
2023/10/08 04:17:22;;;;;;;0.80;0.80;;;;;;;;;;6307611;28;20289;-69
2023/10/08 04:20:33;;;;;;;0.70;0.70;;;;;;;;;;6306860;28;20556;-71
2023/10/08 04:23:38;;;;;;;0.90;0.80;;;;;;;;;;6306512;28;20314;-69
2023/10/08 04:26:43;;;;;;;0.63;0.63;;;;;;;;;;6307366;28;20281;-70
2023/10/08 04:29:49;;;;;;;0.70;0.70;;;;;;;;;;6306205;28;20305;-71
2023/10/08 04:32:55;;;;;;;0.70;0.70;;;;;;;;;;6306252;28;20286;-71
2023/10/08 04:36:01;;;;;;;0.68;0.60;;;;;;;;;;6307143;28;20301;-70
2023/10/08 04:39:13;;;;;;;0.95;0.95;;;;;;;;;;6306040;28;20318;-69
2023/10/08 04:42:25;;;;;;;0.90;0.90;;;;;;;;;;6306717;28;20298;-68
2023/10/08 04:45:34;;;;;;;0.85;0.63;;;;;;;;;;6306076;28;20302;-69
2023/10/08 04:48:43;;;;;;;0.70;0.70;;;;;;;;;;6305499;28;20310;-70
2023/10/08 04:51:48;;;;;;;0.80;0.80;;;;;;;;;;6306741;28;20520;-69
2023/10/08 04:54:54;;;;;;;0.70;0.70;;;;;;;;;;6305527;28;20298;-69
2023/10/08 04:57:58;;;;;;;0.75;0.75;;;;;;;;;;6305714;28;20329;-70
2023/10/08 05:01:17;;;;;;;2.72;0.88;;;;;;;;;;6306520;28;20243;-69
2023/10/08 05:04:26;;;;;;;0.70;0.70;;;;;;;;;;6306059;28;20386;-70
2023/10/08 05:11:15;;;;;;;0.70;0.70;;;;;;;;;;6306456;28;20294;-70
2023/10/08 05:14:34;;;;;;;2.72;0.88;;;;;;;;;;6286609;28;20306;-71
2023/10/08 05:17:56;;;;;;;1.27;0.63;;;;;;;;;;6306065;28;20547;-71
2023/10/08 05:21:15;;;;;;;0.77;0.77;;;;;;;;;;6306666;28;20295;-70
2023/10/08 05:24:27;;;;;;;0.60;0.60;;;;;;;;;;6306001;28;20618;-70
2023/10/08 05:31:11;;;;;;;0.85;0.85;;;;;;;;;;6305475;28;20362;-72
2023/10/08 05:34:14;;;;;;;0.70;0.70;;;;;;;;;;6305774;28;20583;-70
2023/10/08 05:37:37;;;;;;;0.70;0.70;;;;;;;;;;6306582;28;20302;-70
2023/10/08 05:41:04;;;;;;;1.38;0.90;;;;;;;;;;6298375;28;20282;-70
2023/10/08 05:44:38;;;;;;;1.00;0.90;;;;;;;;;;6305575;28;20306;-69
2023/10/08 05:48:06;;;;;;;0.50;0.50;;;;;;;;;;6305499;28;20572;-70
2023/10/08 05:51:13;;;;;;;0.77;0.77;;;;;;;;;;6299237;28;20302;-71
2023/10/08 05:54:35;;;;;;;1.08;0.90;;;;;;;;;;6305087;28;20302;-71
2023/10/08 05:57:46;;;;;;;3.50;0.80;;;;;;;;;;6305255;28;20302;-70
2023/10/08 06:01:07;;;;;;;0.60;0.60;;;;;;;;;;6308165;28;20267;-69
2023/10/08 06:04:42;;;;;;;0.93;0.70;;;;;;;;;;6330276;28;20397;-69
2023/10/08 06:07:56;;;;;;;1.00;0.70;;;;;;;;;;6335868;27;20331;-70
2023/10/08 06:11:07;;;;;;;1.02;1.02;;;;;;;;;;6322900;28;20357;-70
2023/10/08 06:14:16;;;;;;;0.70;0.70;;;;;;;;;;6308306;28;20294;-70
2023/10/08 06:17:55;;;;;;;2.38;0.73;;;;;;;;;;6310391;28;20294;-69
2023/10/08 06:21:08;;;;;;;2.40;0.73;;;;;;;;;;6309526;28;20298;-69
2023/10/08 06:24:16;;;;;;;0.80;0.80;;;;;;;;;;6309727;28;20309;-70
2023/10/08 06:27:25;;;;;;;0.95;0.90;;;;;;;;;;6310250;28;20314;-69
2023/10/08 06:30:34;;;;;;;0.98;0.80;;;;;;;;;;6309133;28;20413;-71
2023/10/08 06:33:40;;;;;;;1.48;0.80;;;;;;;;;;6309364;28;20401;-70
2023/10/08 06:36:46;;;;;;;1.35;0.93;;;;;;;;;;6309882;28;20290;-70
2023/10/08 06:39:50;;;;;;;5.18;0.90;;;;;;;;;;6301899;28;20298;-69
2023/10/08 06:42:57;;;;;;;0.63;0.63;;;;;;;;;;6309074;28;20405;-70
2023/10/08 06:46:00;;;;;;;3.70;0.60;;;;;;;;;;6309853;28;20250;-69
2023/10/08 06:49:11;;;;;;;0.85;0.85;;;;;;;;;;6309296;28;20298;-71
2023/10/08 06:52:15;;;;;;;0.80;0.80;;;;;;;;;;6309533;28;20493;-69
2023/10/08 06:55:24;;;;;;;0.80;0.80;;;;;;;;;;6309297;28;20302;-70
2023/10/08 06:58:31;;;;;;;1.15;0.80;;;;;;;;;;6308531;28;20294;-68
2023/10/08 07:01:39;;;;;;;2.17;0.90;;;;;;;;;;6309412;28;20286;-68
2023/10/08 07:04:46;;;;;;;2.15;0.80;;;;;;;;;;6308191;28;20303;-68
2023/10/08 07:07:53;;;;;;;0.88;0.88;;;;;;;;;;6308970;28;20298;-70
2023/10/08 07:10:58;;;;;;;0.73;0.73;;;;;;;;;;6307666;28;20295;-71
2023/10/08 07:14:04;;;;;;;0.77;0.77;;;;;;;;;;6306937;28;20298;-71
2023/10/08 07:17:10;;;;;;;1.17;1.17;;;;;;;;;;6309160;28;20286;-71
2023/10/08 07:20:21;;;;;;;0.60;0.60;;;;;;;;;;6308188;28;20311;-70
2023/10/08 07:23:27;;;;;;;1.23;0.82;;;;;;;;;;6307730;28;20298;-72
2023/10/08 07:26:36;;;;;;;0.70;0.70;;;;;;;;;;6308950;28;20587;-70
2023/10/08 07:29:46;;;;;;;0.88;0.73;;;;;;;;;;6308634;28;20607;-77
2023/10/08 07:32:50;;;;;;;0.80;0.80;;;;;;;;;;6308261;28;20594;-71
2023/10/08 07:36:03;;;;;;;1.48;0.77;;;;;;;;;;6301107;28;20298;-70
2023/10/08 07:39:09;;;;;;;0.85;0.85;;;;;;;;;;6308077;28;20318;-68
2023/10/08 07:42:13;;;;;;;0.77;0.77;;;;;;;;;;6328720;28;20302;-69
2023/10/08 07:45:21;;;;;;;1.10;1.10;;;;;;;;;;6332642;28;20381;-69
2023/10/08 07:48:29;;;;;;;1.23;0.95;;;;;;;;;;6333100;28;20301;-70
2023/10/08 07:51:34;;;;;;;1.23;1.17;;;;;;;;;;6333260;28;20469;-69
2023/10/08 07:54:38;;;;;;;0.90;0.90;;;;;;;;;;6332482;28;20305;-69
2023/10/08 07:57:42;;;;;;;0.82;0.80;;;;;;;;;;6332341;28;20302;-69
2023/10/08 08:00:52;;;;;;;0.80;0.80;;;;;;;;;;6315166;28;20509;-69
2023/10/08 08:03:57;;;;;;;5.50;0.90;;;;;;;;;;6331641;28;20298;-69
2023/10/08 08:07:04;;;;;;;0.80;0.80;;;;;;;;;;6333228;28;20258;-72
2023/10/08 08:10:10;;;;;;;0.85;0.85;;;;;;;;;;6327172;28;20528;-69
2023/10/08 08:13:20;;;;;;;0.93;0.93;;;;;;;;;;6305140;28;20249;-68
2023/10/08 08:16:28;;;;;;;0.90;0.90;;;;;;;;;;6280068;28;20303;-70
2023/10/08 08:19:32;;;;;;;0.98;0.95;;;;;;;;;;6282521;28;20303;-69
2023/10/08 08:22:40;;;;;;;0.90;0.90;;;;;;;;;;6266821;28;20485;-71
2023/10/08 08:26:05;;;;;;;0.80;0.80;;;;;;;;;;6306107;28;20303;-69
2023/10/08 08:29:15;;;;;;;0.85;0.85;;;;;;;;;;6317961;28;20353;-69
2023/10/08 08:32:21;;;;;;;1.30;0.70;;;;;;;;;;6322613;28;20310;-69
2023/10/08 08:35:26;;;;;;;0.70;0.70;;;;;;;;;;6306747;28;20306;-71
2023/10/08 08:38:32;;;;;;;0.82;0.82;;;;;;;;;;6306955;28;20294;-71
2023/10/08 08:41:38;;;;;;;1.75;0.85;;;;;;;;;;6304974;28;20286;-70
2023/10/08 08:44:46;;;;;;;0.80;0.80;;;;;;;;;;6330175;28;20609;-70
2023/10/08 08:47:52;;;;;;;3.20;0.70;;;;;;;;;;6331931;28;20289;-69
2023/10/08 08:50:56;;;;;;;1.13;0.98;;;;;;;;;;6332064;28;20301;-72
2023/10/08 08:54:05;;;;;;;0.75;0.75;;;;;;;;;;6330976;28;20309;-71
2023/10/08 08:57:13;;;;;;;0.90;0.88;;;;;;;;;;6328887;28;20313;-71
2023/10/08 09:00:19;;;;;;;0.73;0.73;;;;;;;;;;6306822;28;20290;-70
2023/10/08 09:03:30;;;;;;;1.38;0.80;;;;;;;;;;6305025;28;20397;-72
2023/10/08 09:06:37;;;;;;;1.13;1.00;;;;;;;;;;6306399;28;20231;-71
2023/10/08 09:09:42;;;;;;;1.02;0.90;;;;;;;;;;6303504;28;20306;-69
2023/10/08 09:12:48;;;;;;;0.70;0.70;;;;;;;;;;6304040;28;20309;-77
2023/10/08 09:15:52;;;;;;;0.70;0.70;;;;;;;;;;6322953;28;20270;-69
2023/10/08 09:19:01;;;;;;;0.70;0.70;;;;;;;;;;6330845;28;20309;-69
2023/10/08 09:22:06;;;;;;;1.17;0.68;;;;;;;;;;6331039;28;20254;-69
2023/10/08 09:25:14;;;;;;;1.27;0.80;;;;;;;;;;6331137;28;20293;-69
2023/10/08 09:28:18;;;;;;;0.80;0.80;;;;;;;;;;6330554;28;20293;-70
2023/10/08 09:31:24;;;;;;;0.70;0.70;;;;;;;;;;6326832;28;20302;-69
2023/10/08 09:34:30;;;;;;;0.75;0.70;;;;;;;;;;6304694;28;20325;-70
2023/10/08 09:37:35;;;;;;;0.75;0.75;;;;;;;;;;6305470;28;20317;-70
2023/10/08 09:40:40;;;;;;;0.90;0.90;;;;;;;;;;6306145;28;20300;-70
2023/10/08 09:43:45;;;;;;;0.80;0.80;;;;;;;;;;6305714;28;20350;-69
2023/10/08 09:46:53;;;;;;;0.80;0.80;;;;;;;;;;6306163;28;20290;-70
2023/10/08 09:50:07;;;;;;;0.82;0.82;;;;;;;;;;6305943;28;20307;-71
2023/10/08 09:53:16;;;;;;;0.90;0.90;;;;;;;;;;6305437;28;20346;-70
2023/10/08 09:56:21;;;;;;;0.77;0.77;;;;;;;;;;6306362;28;20302;-69
2023/10/08 09:59:26;;;;;;;0.70;0.70;;;;;;;;;;6305019;28;20611;-70
2023/10/08 10:02:31;;;;;;;1.52;0.80;;;;;;;;;;6304452;28;20301;-72
2023/10/08 10:05:36;;;;;;;1.75;0.70;;;;;;;;;;6306075;28;20642;-69
2023/10/08 10:08:41;;;;;;;0.80;0.80;;;;;;;;;;6305277;28;20602;-70
2023/10/08 10:11:49;;;;;;;1.80;1.00;;;;;;;;;;6305689;28;20318;-70
2023/10/08 10:14:55;;;;;;;1.85;0.80;;;;;;;;;;6303534;28;20298;-69
2023/10/08 10:18:00;;;;;;;0.80;0.80;;;;;;;;;;6323204;28;20297;-69
2023/10/08 10:21:28;;;;;;;0.90;0.90;;;;;;;;;;6330955;28;20294;-69
2023/10/08 10:24:35;;;;;;;0.70;0.70;;;;;;;;;;6329917;28;20329;-68
2023/10/08 10:27:39;;;;;;;0.90;0.90;;;;;;;;;;6330891;28;20598;-69
2023/10/08 10:30:43;;;;;;;1.20;1.10;;;;;;;;;;6330946;28;20293;-72
2023/10/08 10:33:47;;;;;;;0.88;0.88;;;;;;;;;;6305440;28;20595;-70
2023/10/08 10:37:02;;;;;;;1.10;1.10;;;;;;;;;;6279949;28;20275;-69
2023/10/08 10:40:11;;;;;;;0.80;0.80;;;;;;;;;;6283149;28;20310;-69
2023/10/08 10:43:19;;;;;;;0.80;0.80;;;;;;;;;;6305424;28;20298;-70
2023/10/08 10:46:30;;;;;;;0.80;0.80;;;;;;;;;;6308344;28;20295;-70
2023/10/08 10:49:36;;;;;;;1.10;1.10;;;;;;;;;;6309671;28;20298;-70
2023/10/08 10:52:53;;;;;;;4.40;1.10;;;;;;;;;;6309556;28;20306;-72
2023/10/08 10:55:59;;;;;;;0.80;0.80;;;;;;;;;;6309796;28;20337;-70
2023/10/08 10:59:16;;;;;;;1.75;0.70;;;;;;;;;;6309749;28;20306;-68
2023/10/08 11:02:39;;;;;;;1.95;0.80;;;;;;;;;;6310005;28;20303;-70
2023/10/08 11:05:49;;;;;;;1.00;1.00;;;;;;;;;;6331036;28;20302;-71
2023/10/08 11:08:56;;;;;;;1.30;1.20;;;;;;;;;;6359999;27;20321;-70
2023/10/08 11:12:02;;;;;;;2.47;2.47;;;;;;;;;;6338741;28;20301;-71
2023/10/08 11:15:14;;;;;;;1.77;1.33;;;;;;;;;;6331871;28;20285;-70
2023/10/08 11:18:19;;;;;;;1.10;1.10;;;;;;;;;;6333994;28;20297;-70
2023/10/08 11:21:24;;;;;;;2.83;1.00;;;;;;;;;;6334800;28;20289;-70
2023/10/08 11:24:33;;;;;;;2.70;1.98;;;;;;;;;;6334211;28;20301;-70
2023/10/08 11:27:38;;;;;;;1.13;1.13;;;;;;;;;;6333632;28;20293;-70
2023/10/08 11:30:42;;;;;;;1.95;0.80;;;;;;;;;;6334210;28;20380;-69
2023/10/08 11:33:53;;;;;;;1.05;0.98;;;;;;;;;;6320342;28;20660;-70
2023/10/08 11:36:58;;;;;;;0.90;0.90;;;;;;;;;;6333575;28;20566;-71
2023/10/08 11:40:15;;;;;;;1.58;1.00;;;;;;;;;;6333238;28;20294;-71
2023/10/08 11:43:19;;;;;;;0.70;0.70;;;;;;;;;;6333246;28;20301;-71
2023/10/08 11:46:25;;;;;;;0.73;0.73;;;;;;;;;;6333881;28;20313;-69
2023/10/08 11:49:32;;;;;;;1.08;0.80;;;;;;;;;;6332687;28;20487;-69
2023/10/08 11:52:41;;;;;;;0.90;0.90;;;;;;;;;;6333470;28;20329;-70
2023/10/08 11:55:47;;;;;;;1.17;1.17;;;;;;;;;;6333562;28;20345;-70
2023/10/08 11:58:52;;;;;;;1.25;0.80;;;;;;;;;;6307433;28;20345;-70
2023/10/08 12:01:56;;;;;;;0.77;0.77;;;;;;;;;;6308129;28;20322;-69
2023/10/08 12:05:00;;;;;;;0.82;0.82;;;;;;;;;;6308584;28;20305;-69
2023/10/08 12:08:08;;;;;;;1.15;0.80;;;;;;;;;;6307509;28;20290;-71
2023/10/08 12:11:14;;;;;;;1.00;0.80;;;;;;;;;;6308071;28;20299;-69
2023/10/08 12:14:18;;;;;;;0.80;0.80;;;;;;;;;;6304668;28;20298;-70
2023/10/08 12:17:29;;;;;;;1.33;0.85;;;;;;;;;;6283137;28;20298;-70
2023/10/08 12:20:34;;;;;;;0.68;0.68;;;;;;;;;;6281742;28;20299;-69
2023/10/08 12:23:38;;;;;;;1.40;1.00;;;;;;;;;;6281820;28;20303;-69
2023/10/08 12:26:46;;;;;;;1.10;0.70;;;;;;;;;;6282930;28;20299;-69
2023/10/08 12:29:50;;;;;;;0.90;0.90;;;;;;;;;;6282127;28;20302;-70
2023/10/08 12:32:54;;;;;;;0.80;0.80;;;;;;;;;;6298847;28;20317;-70
2023/10/08 12:36:10;;;;;;;0.82;0.82;;;;;;;;;;6307516;28;20302;-70
2023/10/08 12:39:15;;;;;;;0.70;0.70;;;;;;;;;;6306886;28;20314;-69
2023/10/08 12:42:21;;;;;;;0.80;0.80;;;;;;;;;;6307546;28;20302;-69
2023/10/08 12:45:28;;;;;;;0.90;0.90;;;;;;;;;;6306393;28;20295;-70
2023/10/08 12:48:31;;;;;;;0.80;0.80;;;;;;;;;;6306852;28;20298;-70
2023/10/08 12:51:41;;;;;;;0.90;0.90;;;;;;;;;;6307392;28;20310;-70
2023/10/08 12:54:46;;;;;;;0.70;0.70;;;;;;;;;;6306406;28;20302;-70
2023/10/08 12:57:55;;;;;;;1.00;1.00;;;;;;;;;;6322234;28;20497;-70
2023/10/08 13:01:03;;;;;;;2.15;0.70;;;;;;;;;;6314127;28;20281;-70
2023/10/08 13:04:15;;;;;;;0.60;0.60;;;;;;;;;;6331705;28;20294;-70
2023/10/08 13:07:21;;;;;;;0.70;0.70;;;;;;;;;;6319998;28;20310;-71
2023/10/08 13:10:26;;;;;;;0.70;0.70;;;;;;;;;;6315328;28;20372;-70
2023/10/08 13:13:31;;;;;;;0.70;0.70;;;;;;;;;;6330405;28;20293;-70
2023/10/08 13:16:37;;;;;;;1.17;0.70;;;;;;;;;;6313609;28;20439;-70
2023/10/08 13:19:41;;;;;;;0.77;0.77;;;;;;;;;;6331274;28;20302;-69
2023/10/08 13:22:46;;;;;;;1.77;0.65;;;;;;;;;;6331062;28;20302;-71
2023/10/08 13:25:53;;;;;;;0.80;0.80;;;;;;;;;;6331712;28;20282;-70
2023/10/08 13:28:59;;;;;;;0.88;0.88;;;;;;;;;;6330515;28;20298;-72
2023/10/08 13:32:04;;;;;;;0.93;0.80;;;;;;;;;;6331304;28;20329;-70
2023/10/08 13:35:11;;;;;;;1.73;0.85;;;;;;;;;;6331408;28;20297;-70
2023/10/08 13:38:16;;;;;;;0.80;0.80;;;;;;;;;;6332315;27;20329;-70
2023/10/08 13:41:20;;;;;;;0.90;0.90;;;;;;;;;;6331611;28;20333;-70
2023/10/08 13:44:28;;;;;;;0.77;0.77;;;;;;;;;;6331189;28;20318;-72
2023/10/08 13:47:33;;;;;;;1.17;1.17;;;;;;;;;;6363195;27;20300;-70
2023/10/08 13:50:37;;;;;;;0.88;0.88;;;;;;;;;;6331972;28;20293;-70
2023/10/08 13:53:44;;;;;;;2.53;0.80;;;;;;;;;;6331130;27;20297;-70
2023/10/08 13:56:49;;;;;;;0.88;0.88;;;;;;;;;;6339057;28;20301;-69
2023/10/08 13:59:56;;;;;;;1.10;1.00;;;;;;;;;;6356380;28;20292;-69
2023/10/08 14:02:59;;;;;;;0.80;0.80;;;;;;;;;;6337473;27;20415;-69
2023/10/08 14:06:04;;;;;;;0.90;0.90;;;;;;;;;;6356793;28;20578;-69
2023/10/08 14:09:12;;;;;;;1.30;1.00;;;;;;;;;;6356101;27;20308;-70
2023/10/08 14:12:16;;;;;;;0.90;0.90;;;;;;;;;;6333554;28;20305;-69
2023/10/08 14:15:22;;;;;;;0.80;0.80;;;;;;;;;;6329921;28;20305;-70
2023/10/08 14:18:28;;;;;;;1.55;1.20;;;;;;;;;;6330751;28;20289;-71
2023/10/08 14:21:38;;;;;;;1.95;0.95;;;;;;;;;;6333315;28;20427;-70
2023/10/08 14:24:44;;;;;;;0.90;0.90;;;;;;;;;;6335670;28;20297;-71
2023/10/08 14:27:52;;;;;;;0.70;0.70;;;;;;;;;;6334715;28;20305;-72
2023/10/08 14:31:00;;;;;;;1.95;0.88;;;;;;;;;;6335912;28;20277;-70
2023/10/08 14:34:18;;;;;;;0.93;0.70;;;;;;;;;;6360320;28;20340;-69
2023/10/08 14:44:06;;;;;;;0.60;0.60;;;;;;;;;;6360110;28;20325;-70
2023/10/08 14:47:11;;;;;;;0.88;0.85;;;;;;;;;;6360658;28;20296;-70
2023/10/08 14:50:17;;;;;;;0.80;0.80;;;;;;;;;;6360218;27;20325;-72
2023/10/08 14:53:21;;;;;;;1.65;0.80;;;;;;;;;;6360143;28;20301;-69
2023/10/08 14:56:28;;;;;;;0.82;0.82;;;;;;;;;;6360064;28;20301;-71
2023/10/08 14:59:32;;;;;;;1.38;0.80;;;;;;;;;;6341459;27;20443;-69
2023/10/08 15:02:37;;;;;;;0.75;0.75;;;;;;;;;;6359821;28;20296;-70
2023/10/08 15:05:41;;;;;;;2.88;0.93;;;;;;;;;;6360121;28;20284;-68
2023/10/08 15:08:46;;;;;;;0.80;0.80;;;;;;;;;;6359182;27;20558;-68
2023/10/08 15:11:52;;;;;;;1.05;0.80;;;;;;;;;;6339914;28;20468;-69
2023/10/08 15:14:56;;;;;;;0.90;0.90;;;;;;;;;;6332695;28;20290;-69
2023/10/08 15:18:02;;;;;;;0.88;0.88;;;;;;;;;;6333725;28;20293;-69
2023/10/08 15:21:07;;;;;;;2.05;1.10;;;;;;;;;;6334167;28;20297;-69
2023/10/08 15:24:11;;;;;;;1.13;0.95;;;;;;;;;;6333829;28;20290;-69
2023/10/08 15:27:15;;;;;;;0.93;0.93;;;;;;;;;;6334313;28;20293;-69
2023/10/08 15:30:20;;;;;;;1.00;1.00;;;;;;;;;;6333548;28;20328;-72
2023/10/08 15:33:26;;;;;;;1.13;1.13;;;;;;;;;;6353678;28;20300;-70
2023/10/08 15:36:31;;;;;;;1.10;1.10;;;;;;;;;;6359335;28;20285;-69
2023/10/08 15:39:35;;;;;;;0.80;0.80;;;;;;;;;;6358806;28;20285;-71
2023/10/08 15:42:39;;;;;;;0.98;0.98;;;;;;;;;;6358628;28;20293;-74
2023/10/08 15:45:45;;;;;;;1.00;1.00;;;;;;;;;;6359384;28;20297;-72
2023/10/08 15:48:50;;;;;;;1.15;0.98;;;;;;;;;;6357144;27;20332;-70
2023/10/08 15:51:54;;;;;;;1.00;1.00;;;;;;;;;;6359207;27;20242;-69
2023/10/08 15:54:58;;;;;;;1.15;1.08;;;;;;;;;;6357534;28;20296;-68
2023/10/08 15:58:02;;;;;;;1.20;1.10;;;;;;;;;;6358905;27;20308;-70
2023/10/08 16:01:07;;;;;;;1.50;1.30;;;;;;;;;;6358903;28;20241;-73
2023/10/08 16:04:12;;;;;;;1.35;1.20;;;;;;;;;;6358343;28;20296;-69
2023/10/08 16:07:16;;;;;;;1.20;1.20;;;;;;;;;;6358497;27;20464;-70
2023/10/08 16:10:21;;;;;;;1.20;1.20;;;;;;;;;;6351158;27;20293;-71
2023/10/08 16:13:25;;;;;;;1.30;1.30;;;;;;;;;;6331540;28;20310;-70
2023/10/08 16:16:29;;;;;;;1.05;1.05;;;;;;;;;;6333162;28;20293;-70
2023/10/08 16:19:36;;;;;;;1.17;1.17;;;;;;;;;;6330694;28;20297;-69
2023/10/08 16:22:41;;;;;;;1.88;1.08;;;;;;;;;;6307465;28;20294;-70
2023/10/08 16:25:48;;;;;;;1.40;1.30;;;;;;;;;;6308071;28;20299;-70
2023/10/08 16:28:52;;;;;;;1.42;1.42;;;;;;;;;;6306763;28;20497;-70
2023/10/08 16:31:58;;;;;;;1.58;1.30;;;;;;;;;;6325867;28;20316;-68
2023/10/08 16:35:04;;;;;;;1.20;1.20;;;;;;;;;;6357105;27;20284;-68
2023/10/08 16:38:08;;;;;;;2.50;1.20;;;;;;;;;;6357596;27;20301;-72
2023/10/08 16:41:12;;;;;;;1.40;1.00;;;;;;;;;;6358066;28;20300;-69
2023/10/08 16:44:16;;;;;;;1.20;1.20;;;;;;;;;;6357746;27;20487;-71
2023/10/08 16:47:20;;;;;;;1.52;1.02;;;;;;;;;;6357973;28;20296;-72
2023/10/08 16:50:25;;;;;;;1.00;1.00;;;;;;;;;;6357529;28;20292;-70
2023/10/08 16:53:29;;;;;;;1.05;1.05;;;;;;;;;;6337857;28;20293;-71
2023/10/08 16:56:33;;;;;;;0.90;0.90;;;;;;;;;;6357408;28;20302;-70
2023/10/08 16:59:37;;;;;;;1.10;1.10;;;;;;;;;;6357629;27;20336;-70
2023/10/08 17:02:41;;;;;;;0.90;0.90;;;;;;;;;;6356623;28;20281;-71
2023/10/08 17:05:47;;;;;;;1.02;1.02;;;;;;;;;;6357471;28;20289;-70
2023/10/08 17:08:52;;;;;;;2.03;1.00;;;;;;;;;;6356963;27;20320;-71
2023/10/08 17:11:56;;;;;;;0.90;0.90;;;;;;;;;;6336812;28;20294;-70
2023/10/08 17:15:00;;;;;;;1.25;1.00;;;;;;;;;;6330373;28;20289;-70
2023/10/08 17:18:06;;;;;;;1.95;1.40;;;;;;;;;;6331824;28;20448;-71
2023/10/08 17:21:13;;;;;;;1.05;1.05;;;;;;;;;;6331861;28;20281;-69
2023/10/08 17:24:18;;;;;;;1.30;1.25;;;;;;;;;;6331527;28;20297;-69
2023/10/08 17:27:22;;;;;;;1.30;1.20;;;;;;;;;;6332151;28;20297;-71
2023/10/08 17:30:27;;;;;;;0.98;0.98;;;;;;;;;;6330547;28;20310;-71
2023/10/08 17:33:32;;;;;;;1.95;1.10;;;;;;;;;;6352787;27;20284;-71
2023/10/08 17:36:37;;;;;;;1.35;0.90;;;;;;;;;;6357326;28;20301;-71
2023/10/08 17:39:41;;;;;;;1.15;1.10;;;;;;;;;;6340549;27;20310;-69
2023/10/08 17:42:46;;;;;;;1.10;1.10;;;;;;;;;;6305282;28;20321;-70
2023/10/08 17:45:52;;;;;;;1.83;1.20;;;;;;;;;;6305908;28;20274;-70
2023/10/08 17:48:56;;;;;;;1.17;1.05;;;;;;;;;;6306272;28;20286;-69
2023/10/08 17:52:01;;;;;;;1.45;1.05;;;;;;;;;;6306387;28;20415;-68
2023/10/08 17:55:06;;;;;;;2.40;1.20;;;;;;;;;;6306817;28;20594;-72
2023/10/08 17:58:10;;;;;;;2.67;1.00;;;;;;;;;;6304855;28;20287;-69
2023/10/08 18:01:16;;;;;;;1.67;1.30;;;;;;;;;;6287329;28;20299;-68
2023/10/08 18:04:23;;;;;;;0.90;0.90;;;;;;;;;;6285709;28;20314;-69
2023/10/08 18:07:29;;;;;;;1.10;1.10;;;;;;;;;;6286236;28;20606;-68
2023/10/08 18:10:34;;;;;;;0.90;0.90;;;;;;;;;;6300292;28;20472;-69
2023/10/08 18:13:41;;;;;;;1.45;1.15;;;;;;;;;;6334198;28;20301;-70
2023/10/08 18:16:46;;;;;;;2.78;1.05;;;;;;;;;;6336189;28;20387;-68
2023/10/08 18:19:50;;;;;;;1.00;1.00;;;;;;;;;;6335681;27;20301;-68
2023/10/08 18:22:56;;;;;;;1.45;1.17;;;;;;;;;;6335861;27;20309;-71
2023/10/08 18:26:00;;;;;;;1.58;1.50;;;;;;;;;;6335992;28;20291;-69
2023/10/08 18:29:05;;;;;;;3.55;1.58;;;;;;;;;;6336321;27;20293;-70
2023/10/08 18:32:09;;;;;;;1.30;1.10;;;;;;;;;;6335671;28;20290;-72
2023/10/08 18:35:13;;;;;;;1.02;1.02;;;;;;;;;;6335251;28;20301;-71
2023/10/08 18:38:19;;;;;;;0.90;0.90;;;;;;;;;;6335385;28;20382;-75
2023/10/08 18:41:24;;;;;;;1.13;1.13;;;;;;;;;;6334108;28;20297;-70
2023/10/08 18:44:27;;;;;;;1.15;1.00;;;;;;;;;;6335167;28;20297;-71
2023/10/08 18:47:33;;;;;;;1.08;1.08;;;;;;;;;;6334078;28;20312;-71
2023/10/08 18:50:37;;;;;;;1.05;1.05;;;;;;;;;;6335452;28;20285;-71
2023/10/08 18:53:45;;;;;;;1.00;1.00;;;;;;;;;;6335234;28;20293;-71
2023/10/08 18:56:50;;;;;;;1.10;1.10;;;;;;;;;;6335596;28;20302;-71